createdAt,value
2023-01-06T00:01:37.595Z,101374.69
2023-01-06T00:04:08.244Z,101362.41
2023-01-06T00:06:37.682Z,101360.63
2023-01-06T00:09:07.194Z,101372.06
2023-01-06T00:11:37.970Z,101387.00
2023-01-06T00:14:07.135Z,101385.22
2023-01-06T00:16:37.034Z,101381.69
2023-01-06T00:19:07.573Z,101390.50
2023-01-06T00:21:36.969Z,101399.28
2023-01-06T00:24:06.636Z,101396.63
2023-01-06T00:26:35.903Z,101395.75
2023-01-06T00:29:05.895Z,101407.19
2023-01-06T00:31:35.202Z,101404.53
2023-01-06T00:34:04.221Z,101412.44
2023-01-06T00:36:34.919Z,101417.69
2023-01-06T00:39:04.676Z,101420.34
2023-01-06T00:42:00.041Z,101434.38
2023-01-06T00:44:29.162Z,101427.34
2023-01-06T00:46:58.840Z,101436.16
2023-01-06T00:49:28.395Z,101428.25
2023-01-06T00:51:59.164Z,101438.75
2023-01-06T00:54:28.386Z,101449.31
2023-01-06T00:56:58.177Z,101445.81
2023-01-06T00:59:27.972Z,101459.84
2023-01-06T01:01:59.016Z,101465.97
2023-01-06T01:04:29.343Z,101463.34
2023-01-06T01:07:00.740Z,101481.81
2023-01-06T01:09:31.578Z,101479.16
2023-01-06T01:12:14.210Z,101483.50
2023-01-06T01:14:47.023Z,101492.31
2023-01-06T01:17:19.277Z,101501.97
2023-01-06T01:19:49.977Z,101499.31
2023-01-06T01:22:20.832Z,101502.81
2023-01-06T01:24:50.115Z,101495.78
2023-01-06T01:27:19.897Z,101508.09
2023-01-06T01:29:49.455Z,101511.56
2023-01-06T01:32:18.713Z,101524.75
2023-01-06T01:34:47.817Z,101529.13
2023-01-06T01:37:17.196Z,101526.50
2023-01-06T01:39:49.169Z,101522.97
2023-01-06T01:42:20.819Z,101516.78
2023-01-06T01:45:05.934Z,101529.09
2023-01-06T01:47:44.471Z,101521.19
2023-01-06T01:50:24.563Z,101525.56
2023-01-06T01:53:06.547Z,101517.66
2023-01-06T01:55:39.122Z,101530.81
2023-01-06T01:58:11.151Z,101537.84
2023-01-06T02:00:43.944Z,101540.47
2023-01-06T02:03:15.621Z,101552.75
2023-01-06T02:05:50.083Z,101546.59
2023-01-06T02:08:27.573Z,101558.88
2023-01-06T02:10:58.149Z,101558.88
2023-01-06T02:13:28.287Z,101562.34
2023-01-06T02:16:05.840Z,101571.94
2023-01-06T02:18:48.071Z,101579.00
2023-01-06T02:21:31.754Z,101565.78
2023-01-06T02:24:46.743Z,101564.81
2023-01-06T02:27:41.275Z,101574.53
2023-01-06T02:30:43.051Z,101571.88
2023-01-06T02:33:25.191Z,101580.59
2023-01-06T02:36:21.902Z,101578.78
2023-01-06T02:39:05.171Z,101580.50
2023-01-06T02:41:43.471Z,101578.72
2023-01-06T02:44:25.351Z,101579.63
2023-01-06T02:47:14.346Z,101585.72
2023-01-06T02:49:57.179Z,101582.19
2023-01-06T02:52:37.768Z,101569.91
2023-01-06T02:55:12.462Z,101577.75
2023-01-06T02:57:46.818Z,101572.47
2023-01-06T03:00:22.736Z,101567.22
2023-01-06T03:02:59.108Z,101565.47
2023-01-06T03:05:30.693Z,101566.34
2023-01-06T03:08:03.814Z,101563.69
2023-01-06T03:10:34.181Z,101561.94
2023-01-06T03:13:09.459Z,101554.91
2023-01-06T03:15:38.622Z,101555.78
2023-01-06T03:18:08.498Z,101565.47
2023-01-06T03:20:40.272Z,101564.59
2023-01-06T03:23:09.809Z,101566.31
2023-01-06T03:25:40.250Z,101567.22
2023-01-06T03:28:11.344Z,101565.44
2023-01-06T03:48:00.579Z,101597.84
2023-01-06T03:50:36.649Z,101588.19
2023-01-06T03:53:17.419Z,101588.16
2023-01-06T03:55:53.213Z,101588.16
2023-01-06T03:58:24.407Z,101595.16
2023-01-06T04:00:55.428Z,101588.16
2023-01-06T04:03:27.351Z,101580.22
2023-01-06T04:05:56.633Z,101579.38
2023-01-06T04:08:25.991Z,101583.75
2023-01-06T04:10:55.095Z,101579.38
2023-01-06T04:13:24.276Z,101589.06
2023-01-06T04:15:56.143Z,101588.13
2023-01-06T04:18:26.969Z,101584.63
2023-01-06T04:20:56.151Z,101583.75
2023-01-06T04:23:32.987Z,101572.31
2023-01-06T04:26:06.621Z,101581.09
2023-01-06T04:28:41.639Z,101578.47
2023-01-06T04:31:11.630Z,101593.38
2023-01-06T04:33:43.293Z,101588.09
2023-01-06T04:36:14.526Z,101589.00
2023-01-06T04:38:47.447Z,101595.16
2023-01-06T04:41:16.908Z,101588.13
2023-01-06T04:43:46.209Z,101594.22
2023-01-06T04:46:15.289Z,101596.00
2023-01-06T04:48:45.946Z,101595.09
2023-01-06T04:51:15.044Z,101603.00
2023-01-06T04:53:44.346Z,101596.84
2023-01-06T04:56:14.482Z,101603.00
2023-01-06T04:58:43.964Z,101601.28
2023-01-06T05:01:14.471Z,101590.69
2023-01-06T05:03:45.502Z,101608.25
2023-01-06T05:06:15.577Z,101610.00
2023-01-06T05:08:45.764Z,101603.91
2023-01-06T05:11:18.464Z,101612.63
2023-01-06T05:13:48.276Z,101617.91
2023-01-06T05:16:21.265Z,101623.16
2023-01-06T05:18:52.714Z,101627.53
2023-01-06T05:21:21.978Z,101622.28
2023-01-06T05:23:51.600Z,101618.75
2023-01-06T05:26:23.385Z,101616.16
2023-01-06T05:28:53.038Z,101612.63
2023-01-06T05:31:22.236Z,101615.25
2023-01-06T05:33:53.053Z,101610.00
2023-01-06T05:36:22.461Z,101610.00
2023-01-06T05:38:55.666Z,101603.00
2023-01-06T05:41:25.013Z,101596.84
2023-01-06T05:43:54.405Z,101601.28
2023-01-06T05:46:23.568Z,101608.31
2023-01-06T05:48:54.232Z,101612.69
2023-01-06T05:51:23.471Z,101615.31
2023-01-06T05:53:52.790Z,101618.84
2023-01-06T05:56:23.931Z,101624.13
2023-01-06T05:58:54.535Z,101624.97
2023-01-06T06:01:24.616Z,101624.13
2023-01-06T06:03:56.141Z,101623.25
2023-01-06T06:06:27.363Z,101619.72
2023-01-06T06:08:56.768Z,101618.81
2023-01-06T06:11:25.988Z,101617.97
2023-01-06T06:13:56.961Z,101609.19
2023-01-06T06:16:27.712Z,101614.44
2023-01-06T06:19:00.049Z,101611.81
2023-01-06T06:21:31.172Z,101620.59
2023-01-06T06:24:01.525Z,101618.84
2023-01-06T06:26:30.649Z,101614.44
2023-01-06T06:28:59.987Z,101611.81
2023-01-06T06:31:30.570Z,101610.91
2023-01-06T06:34:03.712Z,101611.78
2023-01-06T06:36:33.611Z,101604.75
2023-01-06T06:39:03.740Z,101603.91
2023-01-06T06:41:32.882Z,101592.47
2023-01-06T06:44:03.962Z,101588.09
2023-01-06T06:46:33.150Z,101586.31
2023-01-06T06:49:03.986Z,101591.56
2023-01-06T06:51:33.224Z,101586.31
2023-01-06T06:54:02.477Z,101591.56
2023-01-06T06:56:31.609Z,101593.31
2023-01-06T06:59:00.871Z,101595.03
2023-01-06T07:01:31.850Z,101606.44
2023-01-06T07:04:02.772Z,101602.03
2023-01-06T07:06:32.608Z,101602.03
2023-01-06T07:09:02.088Z,101602.03
2023-01-06T07:11:31.084Z,101600.22
2023-01-06T07:14:00.346Z,101605.50
2023-01-06T07:16:30.864Z,101602.88
2023-01-06T07:19:00.371Z,101609.84
2023-01-06T07:21:30.892Z,101605.50
2023-01-06T07:24:00.309Z,101607.22
2023-01-06T07:26:29.475Z,101611.53
2023-01-06T07:28:59.386Z,101608.91
2023-01-06T07:31:28.630Z,101612.41
2023-01-06T07:33:57.964Z,101622.09
2023-01-06T07:36:27.113Z,101643.16
2023-01-06T07:38:58.038Z,101637.91
2023-01-06T07:41:27.152Z,101635.22
2023-01-06T07:43:56.457Z,101626.41
2023-01-06T07:46:25.583Z,101616.72
2023-01-06T07:48:54.852Z,101624.66
2023-01-06T07:51:24.058Z,101627.31
2023-01-06T07:53:53.578Z,101631.69
2023-01-06T07:56:25.063Z,101630.78
2023-01-06T07:58:54.920Z,101632.56
2023-01-06T08:01:24.026Z,101627.25
2023-01-06T08:03:53.471Z,101638.69
2023-01-06T08:06:22.442Z,101628.16
2023-01-06T08:08:51.854Z,101635.19
2023-01-06T08:11:21.138Z,101632.50
2023-01-06T08:13:52.258Z,101623.72
2023-01-06T08:16:21.486Z,101622.88
2023-01-06T08:18:50.780Z,101615.00
2023-01-06T08:21:19.971Z,101615.00
2023-01-06T08:23:49.275Z,101600.09
2023-01-06T08:26:19.846Z,101598.38
2023-01-06T08:28:49.407Z,101591.31
2023-01-06T08:31:22.269Z,101584.31
2023-01-06T08:33:53.562Z,101580.84
2023-01-06T08:36:24.478Z,101577.34
2023-01-06T08:38:54.782Z,101573.00
2023-01-06T08:41:24.028Z,101560.69
2023-01-06T08:43:53.404Z,101558.03
2023-01-06T08:46:24.171Z,101560.69
2023-01-06T08:48:53.759Z,101558.00
2023-01-06T08:51:24.025Z,101568.53
2023-01-06T08:53:54.336Z,101569.41
2023-01-06T08:56:25.705Z,101574.66
2023-01-06T08:58:57.679Z,101578.16
2023-01-06T09:01:29.941Z,101588.72
2023-01-06T09:04:01.147Z,101582.59
2023-01-06T09:06:31.161Z,101599.25
2023-01-06T09:09:01.397Z,101584.38
2023-01-06T09:11:30.296Z,101594.06
2023-01-06T09:13:59.657Z,101591.34
2023-01-06T09:16:30.824Z,101593.09
2023-01-06T09:19:00.454Z,101587.00
2023-01-06T09:21:29.477Z,101594.06
2023-01-06T09:23:58.914Z,101586.13
2023-01-06T09:26:27.908Z,101592.28
2023-01-06T09:28:57.332Z,101598.50
2023-01-06T09:31:27.129Z,101597.63
2023-01-06T09:33:57.982Z,101581.81
2023-01-06T09:36:27.107Z,101573.94
2023-01-06T09:38:56.391Z,101560.81
2023-01-06T09:41:49.348Z,101552.06
2023-01-06T09:44:24.742Z,101552.91
2023-01-06T09:46:54.798Z,101538.91
2023-01-06T09:49:30.550Z,101535.38
2023-01-06T09:52:05.006Z,101523.06
2023-01-06T09:54:40.413Z,101531.84
2023-01-06T09:57:16.925Z,101522.16
2023-01-06T09:59:51.389Z,101523.91
2023-01-06T10:02:27.647Z,101534.44
2023-01-06T10:04:58.486Z,101526.53
2023-01-06T10:07:34.734Z,101537.06
2023-01-06T10:10:20.655Z,101519.53
2023-01-06T10:13:02.928Z,101518.63
2023-01-06T10:15:42.945Z,101517.72
2023-01-06T10:18:33.798Z,101509.00
2023-01-06T10:21:14.272Z,101499.31
2023-01-06T10:24:23.139Z,101488.78
2023-01-06T10:26:58.161Z,101493.16
2023-01-06T10:29:30.918Z,101494.06
2023-01-06T10:32:03.628Z,101484.41
2023-01-06T10:34:36.696Z,101482.69
2023-01-06T10:37:20.170Z,101480.94
2023-01-06T10:39:55.472Z,101469.53
2023-01-06T10:42:52.334Z,101464.25
2023-01-06T10:45:22.986Z,101479.16
2023-01-06T10:47:54.078Z,101485.34
2023-01-06T10:50:23.958Z,101477.47
2023-01-06T10:52:54.651Z,101471.25
2023-01-06T10:55:42.720Z,101473.03
2023-01-06T10:58:23.885Z,101487.09
2023-01-06T11:01:08.382Z,101485.25
2023-01-06T11:03:42.783Z,101482.63
2023-01-06T11:06:19.743Z,101481.72
2023-01-06T11:08:50.739Z,101465.09
2023-01-06T11:11:28.123Z,101472.16
2023-01-06T11:14:00.585Z,101463.38
2023-01-06T11:16:32.505Z,101466.00
2023-01-06T11:19:05.539Z,101465.09
2023-01-06T11:21:41.919Z,101459.00
2023-01-06T11:24:19.351Z,101451.13
2023-01-06T11:26:53.788Z,101452.94
2023-01-06T11:29:28.842Z,101435.38
2023-01-06T11:32:02.317Z,101434.50
2023-01-06T11:34:32.575Z,101426.59
2023-01-06T11:37:01.428Z,101409.91
2023-01-06T11:39:35.711Z,101422.22
2023-01-06T11:42:10.473Z,101409.06
2023-01-06T11:44:42.382Z,101408.16
2023-01-06T11:47:16.934Z,101402.91
2023-01-06T11:49:50.275Z,101387.13
2023-01-06T11:52:24.718Z,101380.97
2023-01-06T11:55:05.018Z,101373.94
2023-01-06T11:57:44.227Z,101375.75
2023-01-06T12:00:39.664Z,101374.84
2023-01-06T12:03:18.048Z,101365.16
2023-01-06T12:05:53.260Z,101361.63
2023-01-06T12:08:25.453Z,101346.69
2023-01-06T12:11:03.045Z,101353.72
2023-01-06T12:13:44.373Z,101343.25
2023-01-06T12:16:22.911Z,101337.06
2023-01-06T12:18:53.072Z,101342.34
2023-01-06T12:21:30.010Z,101330.09
2023-01-06T12:24:02.821Z,101333.59
2023-01-06T12:26:35.401Z,101330.09
2023-01-06T12:29:07.464Z,101327.44
2023-01-06T12:31:45.443Z,101325.69
2023-01-06T12:34:21.191Z,101318.66
2023-01-06T12:36:55.493Z,101314.25
2023-01-06T12:39:32.799Z,101312.50
2023-01-06T12:42:10.530Z,101301.97
2023-01-06T12:44:50.698Z,101288.81
2023-01-06T12:47:26.253Z,101284.38
2023-01-06T12:49:59.489Z,101286.13
2023-01-06T12:52:34.470Z,101277.34
2023-01-06T12:55:03.985Z,101271.19
2023-01-06T12:58:00.133Z,101266.88
2023-01-06T13:00:40.741Z,101254.56
2023-01-06T13:03:51.982Z,101254.56
2023-01-06T13:06:47.126Z,101251.03
2023-01-06T13:09:32.432Z,101244.88
2023-01-06T13:12:18.719Z,101254.50
2023-01-06T13:14:59.467Z,101251.00
2023-01-06T13:17:36.139Z,101250.94
2023-01-06T13:20:08.642Z,101262.38
2023-01-06T13:22:55.601Z,101260.59
2023-01-06T13:25:47.966Z,101260.59
2023-01-06T13:28:27.331Z,101243.91
2023-01-06T13:31:23.267Z,101235.13
2023-01-06T13:34:26.322Z,101225.44
2023-01-06T13:37:15.617Z,101223.66
2023-01-06T13:39:48.764Z,101217.50
2023-01-06T13:42:21.347Z,101221.88
2023-01-06T13:44:51.113Z,101221.03
2023-01-06T13:47:24.058Z,101214.88
2023-01-06T13:49:53.915Z,101213.94
2023-01-06T13:52:27.417Z,101205.19
2023-01-06T13:55:03.798Z,101206.06
2023-01-06T13:57:39.312Z,101210.41
2023-01-06T14:00:25.022Z,101209.53
2023-01-06T14:03:25.951Z,101201.63
2023-01-06T14:06:00.153Z,101198.13
2023-01-06T14:08:37.764Z,101188.44
2023-01-06T14:11:22.691Z,101188.44
2023-01-06T14:13:55.023Z,101185.81
2023-01-06T14:16:40.090Z,101170.00
2023-01-06T14:19:19.656Z,101170.00
2023-01-06T14:21:50.032Z,101177.03
2023-01-06T14:24:28.804Z,101174.41
2023-01-06T14:27:02.450Z,101163.84
2023-01-06T14:29:49.210Z,101150.69
2023-01-06T14:33:03.720Z,101153.28
2023-01-06T14:35:42.401Z,101158.53
2023-01-06T14:38:26.969Z,101141.91
2023-01-06T14:41:01.966Z,101148.06
2023-01-06T14:43:36.177Z,101136.66
2023-01-06T14:46:12.501Z,101136.66
2023-01-06T14:48:48.151Z,101134.91
2023-01-06T14:51:23.541Z,101132.25
2023-01-06T14:54:05.073Z,101127.88
2023-01-06T14:56:35.608Z,101126.13
2023-01-06T14:59:13.933Z,101114.69
2023-01-06T15:01:45.786Z,101105.00
2023-01-06T15:04:25.715Z,101098.91
2023-01-06T15:07:15.926Z,101092.72
2023-01-06T15:09:45.160Z,101079.53
2023-01-06T15:12:26.074Z,101066.38
2023-01-06T15:14:55.428Z,101064.66
2023-01-06T15:17:25.199Z,101065.53
2023-01-06T15:19:55.005Z,101057.66
2023-01-06T15:22:26.183Z,101046.22
2023-01-06T15:24:56.815Z,101033.94
2023-01-06T15:27:26.261Z,101025.19
2023-01-06T15:29:56.803Z,101018.19
2023-01-06T15:32:28.111Z,101026.91
2023-01-06T15:34:59.772Z,101016.44
2023-01-06T15:37:34.923Z,101017.31
2023-01-06T15:40:11.287Z,101017.28
2023-01-06T15:42:42.625Z,101024.31
2023-01-06T15:45:26.328Z,101023.44
2023-01-06T15:47:58.983Z,101018.19
2023-01-06T15:50:31.941Z,101028.69
2023-01-06T15:53:05.652Z,101023.44
2023-01-06T15:55:37.363Z,101017.28
2023-01-06T15:58:10.467Z,101012.06
2023-01-06T16:00:48.285Z,101011.19
2023-01-06T16:03:20.568Z,100998.91
2023-01-06T16:05:55.451Z,101002.44
2023-01-06T16:08:31.523Z,100997.16
2023-01-06T16:11:45.769Z,100999.78
2023-01-06T16:14:30.600Z,100995.44
2023-01-06T16:17:06.900Z,100992.81
2023-01-06T16:19:40.437Z,100986.66
2023-01-06T16:22:20.979Z,100980.50
2023-01-06T16:24:54.011Z,100978.78
2023-01-06T16:27:28.090Z,100970.00
2023-01-06T16:30:20.638Z,100967.41
2023-01-06T16:32:52.532Z,100976.13
2023-01-06T16:35:24.175Z,100977.03
2023-01-06T16:37:54.819Z,100977.03
2023-01-06T16:40:28.208Z,100985.81
2023-01-06T16:43:00.363Z,100986.69
2023-01-06T16:45:36.486Z,100974.41
2023-01-06T16:48:06.123Z,100989.34
2023-01-06T16:50:40.470Z,100985.81
2023-01-06T16:53:17.085Z,100974.44
2023-01-06T16:55:53.279Z,100972.72
2023-01-06T16:58:24.395Z,100966.56
2023-01-06T17:00:56.545Z,100960.44
2023-01-06T17:03:28.823Z,100956.06
2023-01-06T17:05:58.930Z,100952.56
2023-01-06T17:08:31.311Z,100965.69
2023-01-06T17:11:07.895Z,100960.44
2023-01-06T17:13:37.017Z,100953.44
2023-01-06T17:16:16.619Z,100956.09
2023-01-06T17:18:54.488Z,100953.44
2023-01-06T17:21:26.225Z,100959.59
2023-01-06T17:23:59.041Z,100950.81
2023-01-06T17:26:30.648Z,100950.84
2023-01-06T17:29:01.045Z,100945.63
2023-01-06T17:31:36.023Z,100946.47
2023-01-06T17:34:14.796Z,100947.34
2023-01-06T17:36:46.902Z,100937.72
2023-01-06T17:39:20.939Z,100947.38
2023-01-06T17:41:55.584Z,100946.50
2023-01-06T17:44:35.139Z,100946.53
2023-01-06T17:47:07.606Z,100947.38
2023-01-06T17:49:37.945Z,100944.78
2023-01-06T17:52:17.897Z,100945.63
2023-01-06T17:55:12.499Z,100942.13
2023-01-06T17:57:47.222Z,100938.63
2023-01-06T18:00:24.082Z,100938.63
2023-01-06T18:03:00.418Z,100933.38
2023-01-06T18:06:15.578Z,100932.50
2023-01-06T18:08:46.109Z,100930.75
2023-01-06T18:11:38.910Z,100934.22
2023-01-06T18:14:23.657Z,100928.09
2023-01-06T18:16:56.760Z,100941.25
2023-01-06T18:19:34.393Z,100932.50
2023-01-06T18:22:11.062Z,100938.66
2023-01-06T18:24:41.803Z,100933.41
2023-01-06T18:27:20.604Z,100939.56
2023-01-06T18:29:52.120Z,100934.28
2023-01-06T18:32:28.936Z,100930.78
2023-01-06T18:35:00.226Z,100929.88
2023-01-06T18:37:31.480Z,100922.03
2023-01-06T18:40:07.855Z,100924.66
2023-01-06T18:42:44.910Z,100923.78
2023-01-06T18:45:25.870Z,100915.88
2023-01-06T18:47:57.836Z,100913.25
2023-01-06T18:50:55.015Z,100911.50
2023-01-06T18:53:28.525Z,100907.09
2023-01-06T18:55:59.921Z,100912.38
2023-01-06T18:58:41.312Z,100910.63
2023-01-06T19:01:20.296Z,100917.66
2023-01-06T19:04:00.607Z,100915.91
2023-01-06T19:06:41.354Z,100922.91
2023-01-06T19:09:35.955Z,100901.84
2023-01-06T19:12:19.301Z,100901.88
2023-01-06T19:14:51.657Z,100910.66
2023-01-06T19:17:29.973Z,100917.66
2023-01-06T19:20:09.124Z,100915.91
2023-01-06T19:22:42.787Z,100907.13
2023-01-06T19:25:27.142Z,100907.16
2023-01-06T19:27:58.016Z,100893.09
2023-01-06T19:30:41.405Z,100892.22
2023-01-06T19:33:34.913Z,100901.00
2023-01-06T19:36:36.203Z,100901.00
2023-01-06T19:39:22.747Z,100908.03
2023-01-06T19:41:53.767Z,100901.88
2023-01-06T19:44:29.654Z,100893.97
2023-01-06T19:47:02.625Z,100893.09
2023-01-06T19:49:41.197Z,100886.06
2023-01-06T19:52:39.269Z,100889.56
2023-01-06T19:55:21.390Z,100883.44
2023-01-06T19:57:53.230Z,100886.06
2023-01-06T20:00:29.388Z,100891.34
2023-01-06T20:03:01.791Z,100886.06
2023-01-06T20:05:34.504Z,100886.06
2023-01-06T20:08:03.587Z,100882.56
2023-01-06T20:10:33.030Z,100868.47
2023-01-06T20:13:02.428Z,100900.09
2023-01-06T20:15:32.191Z,100889.59
2023-01-06T20:18:01.436Z,100887.81
2023-01-06T20:20:33.148Z,100888.72
2023-01-06T20:23:02.686Z,100889.59
2023-01-06T20:25:31.931Z,100891.31
2023-01-06T20:28:00.960Z,100894.81
2023-01-06T20:30:30.466Z,100880.78
2023-01-06T20:32:59.829Z,100884.31
2023-01-06T20:35:29.765Z,100887.81
2023-01-06T20:38:00.506Z,100892.19
2023-01-06T20:40:29.801Z,100884.28
2023-01-06T20:42:59.478Z,100896.56
2023-01-06T20:45:29.026Z,100891.28
2023-01-06T20:47:58.132Z,100893.06
2023-01-06T20:50:28.815Z,100894.81
2023-01-06T20:52:59.872Z,100886.03
2023-01-06T20:55:29.191Z,100887.81
2023-01-06T20:57:58.427Z,100902.72
2023-01-06T21:00:28.790Z,100896.59
2023-01-06T21:02:57.926Z,100893.06
2023-01-06T21:05:28.918Z,100894.81
2023-01-06T21:07:59.452Z,100902.72
2023-01-06T21:10:29.118Z,100898.31
2023-01-06T21:12:58.748Z,100889.53
2023-01-06T21:15:28.413Z,100879.88
2023-01-06T21:17:57.836Z,100891.28
2023-01-06T21:20:27.251Z,100884.25
2023-01-06T21:22:56.379Z,100886.00
2023-01-06T21:25:27.158Z,100887.78
2023-01-06T21:27:56.269Z,100895.69
2023-01-06T21:30:27.967Z,100877.19
2023-01-06T21:32:57.159Z,100893.03
2023-01-06T21:35:26.543Z,100904.44
2023-01-06T21:37:55.659Z,100891.25
2023-01-06T21:40:26.606Z,100889.50
2023-01-06T21:43:09.715Z,100896.53
2023-01-06T21:45:40.087Z,100899.19
2023-01-06T21:48:12.581Z,100894.78
2023-01-06T21:50:45.978Z,100892.16
2023-01-06T21:53:15.670Z,100891.25
2023-01-06T21:55:46.316Z,100900.03
2023-01-06T21:58:15.410Z,100894.75
2023-01-06T22:00:44.651Z,100905.31
2023-01-06T22:03:14.378Z,100901.78
2023-01-06T22:05:43.885Z,100907.94
2023-01-06T22:08:13.608Z,100909.69
2023-01-06T22:10:43.736Z,100909.69
2023-01-06T22:13:18.267Z,100908.81
2023-01-06T22:15:48.049Z,100928.16
2023-01-06T22:18:17.869Z,100927.28
2023-01-06T22:20:47.691Z,100926.38
2023-01-06T22:23:19.701Z,100917.59
2023-01-06T22:25:50.780Z,100929.88
2023-01-06T22:28:21.445Z,100920.22
2023-01-06T22:30:51.530Z,100933.41
2023-01-06T22:33:20.635Z,100933.41
2023-01-06T22:35:50.157Z,100945.72
2023-01-06T22:38:19.471Z,100938.69
2023-01-06T22:40:48.724Z,100938.66
2023-01-06T22:43:18.309Z,100940.47
2023-01-06T22:45:55.142Z,100944.84
2023-01-06T22:48:24.835Z,100937.81
2023-01-06T22:50:58.896Z,100950.97
2023-01-06T22:53:28.839Z,100956.25
2023-01-06T22:55:59.124Z,100964.16
2023-01-06T22:58:28.148Z,100955.41
2023-01-06T23:00:58.928Z,100953.63
2023-01-06T23:03:28.746Z,100958.91
2023-01-06T23:05:59.467Z,100956.25
2023-01-06T23:08:30.030Z,100958.03
2023-01-06T23:11:03.804Z,100959.78
2023-01-06T23:13:33.317Z,100961.53
2023-01-06T23:16:06.459Z,100966.81
2023-01-06T23:18:38.994Z,100968.56
2023-01-06T23:21:10.379Z,100976.50
2023-01-06T23:23:41.206Z,100978.22
2023-01-06T23:26:13.339Z,100980.84
2023-01-06T23:28:43.773Z,100976.47
2023-01-06T23:31:17.434Z,100983.50
2023-01-06T23:33:48.239Z,100990.53
2023-01-06T23:36:19.763Z,100979.97
2023-01-06T23:38:49.107Z,100988.78
2023-01-06T23:41:21.901Z,100998.44
2023-01-06T23:43:52.014Z,100994.94
2023-01-06T23:46:25.366Z,100993.19
2023-01-06T23:48:55.338Z,100991.41
2023-01-06T23:51:25.663Z,100990.53
2023-01-06T23:53:54.588Z,101002.84
2023-01-06T23:56:25.695Z,101010.75
2023-01-06T23:58:56.180Z,101012.50
